Time;durP1;ratioP1;P1;durP2;ratioP2;P2;SDS_P1;SDS_P2;PMS_P1;PMS_P2;Temp;Humidity;BMP_temperature;BMP_pressure;BME280_temperature;BME280_humidity;BME280_pressure;Samples;Min_cycle;Max_cycle;Signal;HPM_P1;HPM_P2
2023/06/16 00:02:06;;;;;;;5.60;3.93;;;21.50;1.00;;;;;;5060994;28;20177;-82
2023/06/16 00:04:32;;;;;;;6.43;4.37;;;21.50;1.00;;;;;;5058215;28;20207;-80
2023/06/16 00:06:58;;;;;;;8.67;4.20;;;21.60;1.00;;;;;;5057837;28;20227;-84
2023/06/16 00:09:26;;;;;;;6.00;4.00;;;21.50;1.00;;;;;;5040154;28;20208;-83
2023/06/16 00:11:55;;;;;;;8.40;3.90;;;21.50;1.00;;;;;;5060282;28;20668;-83
2023/06/16 00:17:31;;;;;;;6.70;3.70;;;21.30;99.90;;;;;;5057074;28;20157;-78
2023/06/16 00:20:00;;;;;;;6.13;3.90;;;21.40;16.20;;;;;;5056473;28;20181;-81
2023/06/16 00:22:26;;;;;;;7.17;4.20;;;21.40;31.10;;;;;;5055669;28;20632;-85
2023/06/16 00:24:53;;;;;;;7.07;4.30;;;21.30;16.40;;;;;;5055869;28;20191;-80
2023/06/16 00:27:22;;;;;;;7.90;4.70;;;21.30;54.10;;;;;;5056003;28;20614;-83
2023/06/16 00:29:49;;;;;;;8.17;4.20;;;21.40;48.20;;;;;;5056161;28;20198;-80
2023/06/16 00:32:15;;;;;;;5.60;3.70;;;21.40;15.10;;;;;;5056305;28;20266;-80
2023/06/16 00:34:42;;;;;;;8.60;4.10;;;21.50;2.60;;;;;;5055562;28;20257;-81
2023/06/16 00:37:08;;;;;;;8.70;4.03;;;21.50;8.30;;;;;;5055660;28;20241;-79
2023/06/16 00:39:34;;;;;;;8.30;4.30;;;21.50;52.80;;;;;;5056408;28;20223;-79
2023/06/16 00:42:00;;;;;;;8.37;4.53;;;21.50;15.90;;;;;;5056326;28;20178;-81
2023/06/16 00:44:25;;;;;;;9.03;3.90;;;21.40;27.60;;;;;;5056488;28;20587;-81
2023/06/16 00:46:51;;;;;;;6.87;4.37;;;21.40;1.00;;;;;;5056046;28;20204;-87
2023/06/16 00:49:17;;;;;;;8.17;4.33;;;21.30;42.70;;;;;;5056113;28;20680;-85
2023/06/16 00:51:44;;;;;;;5.80;4.27;;;21.30;32.90;;;;;;5038417;28;20704;-84
2023/06/16 00:54:12;;;;;;;8.63;4.33;;;21.30;78.90;;;;;;5055724;28;20669;-85
2023/06/16 00:56:41;;;;;;;6.67;4.13;;;21.20;44.30;;;;;;5056125;28;20167;-84
2023/06/16 00:59:07;;;;;;;7.17;4.10;;;21.30;76.60;;;;;;5056300;28;20165;-83
2023/06/16 01:01:34;;;;;;;7.30;4.00;;;21.30;44.60;;;;;;5056406;28;20253;-85
2023/06/16 01:04:00;;;;;;;11.33;4.70;;;21.20;70.30;;;;;;5055571;28;20162;-84
2023/06/16 01:06:41;;;;;;;5.43;3.90;;;21.20;99.90;;;;;;5055267;28;20172;-84
2023/06/16 01:09:23;;;;;;;5.73;3.83;;;21.20;99.90;;;;;;5055836;28;20196;-85
2023/06/16 01:12:13;;;;;;;6.03;4.37;;;21.20;99.90;;;;;;5054399;28;20157;-84
2023/06/16 01:14:41;;;;;;;6.50;4.13;;;21.20;99.90;;;;;;5055184;28;20639;-81
2023/06/16 01:17:09;;;;;;;7.20;4.77;;;21.30;99.90;;;;;;5054723;28;20169;-85
2023/06/16 01:19:49;;;;;;;6.73;4.43;;;21.20;99.90;;;;;;5055222;28;20217;-84
2023/06/16 01:22:34;;;;;;;6.47;4.33;;;21.20;99.90;;;;;;5055791;28;20208;-86
2023/06/16 01:25:03;;;;;;;7.03;4.40;;;21.10;99.90;;;;;;5036179;28;20176;-85
2023/06/16 01:27:30;;;;;;;7.20;4.50;;;21.00;99.90;;;;;;5055378;28;20211;-85
2023/06/16 01:29:58;;;;;;;8.60;4.20;;;21.00;99.90;;;;;;5055100;28;20555;-84
2023/06/16 01:32:26;;;;;;;8.93;4.63;;;21.00;99.90;;;;;;5056236;28;20172;-83
2023/06/16 01:34:53;;;;;;;6.83;4.60;;;20.90;99.90;;;;;;5055774;28;20166;-85
2023/06/16 01:37:20;;;;;;;6.87;4.57;;;20.90;99.90;;;;;;5055831;28;20213;-83
2023/06/16 01:39:47;;;;;;;6.33;4.37;;;20.70;99.90;;;;;;5057478;28;20177;-84
2023/06/16 01:42:15;;;;;;;6.80;4.80;;;20.70;99.90;;;;;;5063805;28;20177;-83
2023/06/16 01:44:42;;;;;;;8.70;4.30;;;20.60;99.90;;;;;;5067849;28;20165;-82
2023/06/16 01:47:08;;;;;;;8.27;4.67;;;20.60;99.90;;;;;;5073768;28;20164;-80
2023/06/16 01:49:35;;;;;;;7.50;4.57;;;20.50;99.90;;;;;;5058914;28;20205;-80
2023/06/16 01:52:01;;;;;;;8.53;4.90;;;20.50;99.90;;;;;;5075953;28;20249;-84
2023/06/16 01:54:28;;;;;;;6.80;4.23;;;20.50;99.90;;;;;;5074082;28;20191;-77
2023/06/16 01:57:00;;;;;;;8.17;4.67;;;20.40;99.90;;;;;;5069896;28;20171;-84
2023/06/16 01:59:57;;;;;;;8.17;4.50;;;20.50;99.90;;;;;;5067614;28;20158;-84
2023/06/16 02:02:26;;;;;;;5.47;4.57;;;20.40;99.90;;;;;;5076744;28;20155;-83
2023/06/16 02:04:53;;;;;;;7.67;4.73;;;20.40;99.90;;;;;;5074899;28;20171;-78
2023/06/16 02:07:30;;;;;;;9.33;5.13;;;20.40;99.90;;;;;;5054552;28;20194;-82
2023/06/16 02:10:01;;;;;;;7.67;5.10;;;20.40;99.90;;;;;;5068968;28;20206;-83
2023/06/16 02:12:28;;;;;;;7.27;4.80;;;20.40;99.90;;;;;;5057044;28;20230;-83
2023/06/16 02:14:55;;;;;;;8.70;5.40;;;20.30;99.90;;;;;;5055199;28;20197;-83
2023/06/16 02:17:26;;;;;;;7.80;5.63;;;20.20;99.90;;;;;;5037411;28;20682;-83
2023/06/16 02:19:55;;;;;;;6.17;4.93;;;20.00;1.00;;;;;;5036762;28;20672;-84
2023/06/16 02:22:21;;;;;;;7.13;5.13;;;20.00;1.00;;;;;;5055136;28;20171;-84
2023/06/16 02:24:48;;;;;;;6.27;4.93;;;20.00;1.00;;;;;;5076040;28;20165;-81
2023/06/16 02:27:14;;;;;;;8.30;5.37;;;20.00;1.00;;;;;;5078626;28;20221;-81
2023/06/16 02:29:40;;;;;;;8.60;5.30;;;20.10;1.00;;;;;;5073728;28;20218;-78
2023/06/16 02:32:07;;;;;;;8.03;5.53;;;20.10;1.00;;;;;;5073721;28;20167;-84
2023/06/16 02:34:33;;;;;;;7.57;5.10;;;20.00;1.00;;;;;;5054527;28;20169;-83
2023/06/16 02:37:27;;;;;;;7.67;5.23;;;20.00;1.00;;;;;;5054679;28;20199;-83
2023/06/16 02:39:54;;;;;;;10.07;5.73;;;20.10;1.00;;;;;;5054453;28;20210;-82
2023/06/16 02:42:21;;;;;;;11.00;5.90;;;20.10;1.00;;;;;;5054007;28;20171;-83
2023/06/16 02:44:47;;;;;;;11.17;5.40;;;20.10;1.00;;;;;;5053766;28;20314;-82
2023/06/16 02:47:13;;;;;;;7.67;5.63;;;20.10;1.00;;;;;;5053340;28;20203;-83
2023/06/16 02:49:42;;;;;;;10.30;5.73;;;20.00;1.00;;;;;;5054484;28;20210;-84
2023/06/16 02:52:11;;;;;;;10.00;6.07;;;20.00;1.00;;;;;;5054420;28;20190;-83
2023/06/16 02:54:40;;;;;;;11.60;5.87;;;20.00;1.00;;;;;;5054530;28;20167;-84
2023/06/16 02:57:07;;;;;;;11.93;5.87;;;20.00;1.00;;;;;;5036120;28;20183;-83
2023/06/16 02:59:34;;;;;;;8.43;5.57;;;19.90;1.00;;;;;;5036161;28;20175;-85
2023/06/16 03:02:00;;;;;;;8.37;5.37;;;19.80;1.00;;;;;;5054323;28;20167;-83
2023/06/16 03:04:27;;;;;;;7.20;5.73;;;19.70;1.00;;;;;;5054177;28;20697;-85
2023/06/16 03:06:57;;;;;;;7.80;5.70;;;19.70;1.00;;;;;;5054517;28;20167;-85
2023/06/16 03:09:26;;;;;;;7.90;5.50;;;19.70;1.00;;;;;;5053673;28;20260;-85
2023/06/16 03:11:53;;;;;;;12.73;5.97;;;19.70;1.00;;;;;;5054058;28;20167;-83
2023/06/16 03:14:20;;;;;;;9.07;5.37;;;19.80;1.00;;;;;;5054227;28;20171;-85
2023/06/16 03:16:50;;;;;;;10.07;6.00;;;19.70;1.00;;;;;;5055309;28;20175;-84
2023/06/16 03:19:17;;;;;;;9.53;6.00;;;19.60;1.00;;;;;;5055038;28;20179;-84
2023/06/16 03:21:44;;;;;;;8.00;5.43;;;19.60;1.00;;;;;;5054207;28;20188;-84
2023/06/16 03:24:13;;;;;;;12.83;6.23;;;19.70;1.00;;;;;;5058253;28;20176;-80
2023/06/16 03:26:39;;;;;;;14.53;6.73;;;19.70;1.00;;;;;;5054271;28;20249;-80
2023/06/16 03:29:06;;;;;;;6.47;5.53;;;19.70;1.00;;;;;;5058606;28;20204;-82
2023/06/16 03:31:32;;;;;;;15.10;6.30;;;19.70;1.00;;;;;;5061978;28;20193;-82
2023/06/16 03:33:58;;;;;;;8.00;5.47;;;19.70;1.00;;;;;;5054924;28;20533;-82
2023/06/16 03:36:24;;;;;;;9.70;6.27;;;19.70;1.00;;;;;;5049622;28;20194;-83
2023/06/16 03:38:50;;;;;;;11.03;6.53;;;19.60;1.00;;;;;;5058005;28;20185;-84
2023/06/16 03:41:16;;;;;;;8.43;5.93;;;19.60;1.00;;;;;;5064818;28;20163;-80
2023/06/16 03:43:42;;;;;;;8.63;6.10;;;19.60;1.00;;;;;;5060251;28;20246;-77
2023/06/16 03:46:08;;;;;;;9.73;6.63;;;19.60;1.00;;;;;;5068970;28;20171;-82
2023/06/16 03:48:33;;;;;;;6.87;6.17;;;19.50;1.00;;;;;;5058441;28;20261;-77
2023/06/16 03:50:59;;;;;;;6.10;5.43;;;19.50;1.00;;;;;;5059371;28;20294;-80
2023/06/16 03:53:25;;;;;;;8.43;6.10;;;19.50;1.00;;;;;;5064977;28;20624;-78
2023/06/16 03:55:50;;;;;;;8.80;5.70;;;19.60;1.00;;;;;;5071788;28;20178;-80
2023/06/16 03:58:16;;;;;;;8.43;6.13;;;19.50;1.00;;;;;;5074176;28;20151;-83
2023/06/16 04:00:44;;;;;;;8.23;6.03;;;19.40;1.00;;;;;;5071722;28;20193;-82
2023/06/16 04:03:10;;;;;;;8.87;6.23;;;19.30;1.00;;;;;;5067829;28;20185;-83
2023/06/16 04:05:36;;;;;;;8.07;5.80;;;19.20;1.00;;;;;;5066690;28;20172;-83
2023/06/16 04:08:02;;;;;;;8.73;6.17;;;19.30;1.00;;;;;;5077195;28;20182;-78
2023/06/16 04:10:27;;;;;;;8.80;5.77;;;19.40;1.00;;;;;;5074481;28;20208;-80
2023/06/16 04:12:53;;;;;;;7.87;6.30;;;19.50;1.00;;;;;;5057309;28;20160;-81
2023/06/16 04:15:19;;;;;;;9.93;6.33;;;19.50;1.00;;;;;;5074815;28;20175;-76
2023/06/16 04:17:45;;;;;;;11.77;6.17;;;19.50;1.00;;;;;;5072855;28;20174;-77
2023/06/16 04:20:12;;;;;;;8.40;5.80;;;19.40;1.00;;;;;;5069429;28;20190;-79
2023/06/16 04:22:38;;;;;;;9.80;6.63;;;19.40;1.00;;;;;;5056097;28;20163;-80
2023/06/16 04:25:05;;;;;;;9.93;6.70;;;19.40;1.00;;;;;;5073453;28;20155;-79
2023/06/16 04:27:33;;;;;;;8.90;5.93;;;19.40;1.00;;;;;;5074355;28;20166;-77
2023/06/16 04:30:02;;;;;;;10.00;6.83;;;19.40;1.00;;;;;;5072480;28;20230;-78
2023/06/16 04:32:29;;;;;;;9.57;6.10;;;19.40;1.00;;;;;;5070802;28;20172;-78
2023/06/16 04:34:58;;;;;;;9.97;6.20;;;19.40;1.00;;;;;;5073900;28;20181;-80
2023/06/16 04:37:30;;;;;;;10.33;6.67;;;19.50;1.00;;;;;;5072794;28;20249;-76
2023/06/16 04:39:58;;;;;;;9.47;6.00;;;19.50;1.00;;;;;;5073715;28;20230;-81
2023/06/16 04:42:24;;;;;;;11.10;6.27;;;19.60;1.00;;;;;;5074137;28;20175;-79
2023/06/16 04:44:51;;;;;;;10.73;6.13;;;19.70;1.00;;;;;;5069000;28;20217;-82
2023/06/16 04:47:17;;;;;;;9.03;6.10;;;19.90;1.00;;;;;;5061159;28;20177;-80
2023/06/16 04:49:43;;;;;;;9.83;6.43;;;19.90;1.00;;;;;;5059968;28;20222;-80
2023/06/16 04:52:09;;;;;;;9.93;6.57;;;19.90;1.00;;;;;;5062376;28;20162;-80
2023/06/16 04:54:36;;;;;;;11.23;6.30;;;19.90;1.00;;;;;;5061865;28;20153;-78
2023/06/16 04:57:02;;;;;;;12.33;7.03;;;20.10;1.00;;;;;;5061431;28;20160;-81
2023/06/16 04:59:31;;;;;;;10.90;6.97;;;20.20;1.00;;;;;;5059657;28;20171;-83
2023/06/16 05:02:00;;;;;;;10.13;6.90;;;20.10;1.00;;;;;;5060085;28;20171;-79
2023/06/16 05:04:26;;;;;;;8.97;6.40;;;20.10;1.00;;;;;;5063779;28;20161;-77
2023/06/16 05:06:53;;;;;;;10.40;6.37;;;20.00;1.00;;;;;;5061842;28;20573;-79
2023/06/16 05:09:22;;;;;;;13.17;6.57;;;20.10;1.00;;;;;;5045175;28;20255;-81
2023/06/16 05:11:51;;;;;;;10.63;6.77;;;20.00;1.00;;;;;;5063220;28;20178;-79
2023/06/16 05:14:20;;;;;;;15.00;7.60;;;19.90;1.00;;;;;;5059440;28;20174;-83
2023/06/16 05:16:55;;;;;;;12.43;7.40;;;19.80;1.00;;;;;;5058503;28;20594;-85
2023/06/16 05:19:23;;;;;;;9.87;7.20;;;19.70;1.00;;;;;;5057373;28;20202;-82
2023/06/16 05:21:52;;;;;;;9.97;7.43;;;19.60;1.00;;;;;;5063551;28;20155;-77
2023/06/16 05:24:27;;;;;;;10.23;7.47;;;19.60;1.00;;;;;;5079344;28;20155;-78
2023/06/16 05:27:15;;;;;;;10.83;7.33;;;19.60;1.00;;;;;;5075250;28;20175;-79
2023/06/16 05:30:11;;;;;;;13.80;7.20;;;19.70;1.00;;;;;;5070917;28;20206;-78
2023/06/16 05:32:37;;;;;;;13.03;6.87;;;19.80;1.00;;;;;;5069098;28;20157;-78
2023/06/16 05:35:17;;;;;;;15.47;7.93;;;19.70;1.00;;;;;;5075339;28;20190;-79
2023/06/16 05:37:42;;;;;;;11.23;7.87;;;19.80;1.00;;;;;;5056030;28;20197;-84
2023/06/16 05:40:09;;;;;;;15.63;7.33;;;20.10;1.00;;;;;;5055387;28;20163;-73
2023/06/16 05:42:40;;;;;;;8.83;6.63;;;20.50;1.00;;;;;;5054910;28;20174;-73
2023/06/16 05:45:08;;;;;;;11.23;6.20;;;20.90;1.00;;;;;;5054217;28;20255;-73
2023/06/16 05:47:35;;;;;;;14.83;6.00;;;21.50;99.90;;;;;;5053947;28;20368;-72
2023/06/16 05:50:11;;;;;;;9.33;5.80;;;21.90;99.90;;;;;;5059878;28;20223;-77
2023/06/16 05:52:42;;;;;;;11.23;7.50;;;21.90;99.90;;;;;;5063586;28;20169;-80
2023/06/16 05:55:10;;;;;;;14.17;7.87;;;21.50;99.90;;;;;;5038505;28;20169;-74
2023/06/16 05:57:36;;;;;;;10.43;6.87;;;20.90;99.90;;;;;;5054810;28;20173;-76
2023/06/16 06:00:04;;;;;;;11.60;6.83;;;21.30;99.90;;;;;;5054020;28;20154;-79
2023/06/16 06:02:35;;;;;;;13.93;8.63;;;21.60;99.90;;;;;;5055550;28;20230;-77
2023/06/16 06:05:01;;;;;;;14.43;8.60;;;21.50;99.90;;;;;;5055010;28;20165;-75
2023/06/16 06:07:33;;;;;;;17.53;9.07;;;21.50;99.90;;;;;;5055945;28;20220;-83
2023/06/16 06:09:58;;;;;;;15.50;8.57;;;21.20;99.90;;;;;;5060036;28;20256;-74
2023/06/16 06:12:25;;;;;;;17.27;8.60;;;21.00;1.00;;;;;;5058839;28;20582;-76
2023/06/16 06:14:51;;;;;;;20.47;9.60;;;21.20;1.00;;;;;;5057179;28;20180;-78
2023/06/16 06:17:16;;;;;;;20.97;8.90;;;21.70;99.90;;;;;;5056019;28;20234;-79
2023/06/16 06:19:43;;;;;;;18.30;8.63;;;22.00;99.90;;;;;;5058403;28;20165;-85
2023/06/16 06:22:09;;;;;;;18.73;8.50;;;22.30;99.90;;;;;;5057149;28;20158;-84
2023/06/16 06:24:34;;;;;;;19.63;7.73;;;22.50;99.90;;;;;;5054693;28;20165;-80
2023/06/16 06:27:00;;;;;;;24.83;8.40;;;22.70;99.90;;;;;;5055380;28;20572;-72
2023/06/16 06:29:26;;;;;;;26.67;9.70;;;22.60;99.90;;;;;;5054188;28;20289;-76
2023/06/16 06:31:51;;;;;;;19.47;8.33;;;22.40;99.90;;;;;;5053953;28;20609;-78
2023/06/16 06:34:17;;;;;;;22.20;9.47;;;22.20;99.90;;;;;;5053032;28;20188;-77
2023/06/16 06:36:43;;;;;;;23.27;9.23;;;21.70;99.90;;;;;;5052708;28;20197;-77
2023/06/16 06:39:09;;;;;;;21.90;8.03;;;21.50;99.90;;;;;;5052786;28;20188;-78
2023/06/16 06:41:34;;;;;;;18.37;9.33;;;21.50;99.90;;;;;;5052469;28;20251;-79
2023/06/16 06:44:00;;;;;;;28.03;10.30;;;21.50;99.90;;;;;;5053474;28;20170;-75
2023/06/16 06:46:26;;;;;;;22.50;8.97;;;21.60;99.90;;;;;;5053222;28;20222;-75
2023/06/16 06:48:51;;;;;;;18.33;9.80;;;21.80;99.90;;;;;;5052361;28;20637;-77
2023/06/16 06:51:17;;;;;;;17.70;9.17;;;21.70;99.90;;;;;;5054123;28;20181;-76
2023/06/16 06:53:43;;;;;;;15.70;8.60;;;21.60;99.90;;;;;;5054113;28;20223;-76
2023/06/16 06:56:09;;;;;;;15.60;8.77;;;21.50;99.90;;;;;;5054386;28;20184;-77
2023/06/16 06:58:35;;;;;;;14.20;8.53;;;21.60;99.90;;;;;;5054753;28;20165;-76
2023/06/16 07:01:01;;;;;;;12.93;8.17;;;21.60;99.90;;;;;;5036296;28;20640;-77
2023/06/16 07:03:32;;;;;;;15.40;8.13;;;21.60;99.90;;;;;;5054040;28;20249;-76
2023/06/16 07:05:58;;;;;;;12.37;7.87;;;21.60;99.90;;;;;;5047004;28;20181;-77
2023/06/16 07:08:25;;;;;;;9.77;8.10;;;21.70;99.90;;;;;;5035683;28;20189;-78
2023/06/16 07:10:50;;;;;;;12.03;7.53;;;21.80;90.00;;;;;;5034295;28;20218;-75
2023/06/16 07:13:16;;;;;;;11.83;7.53;;;22.00;29.20;;;;;;5033955;28;20179;-76
2023/06/16 07:15:42;;;;;;;12.17;7.67;;;22.30;1.00;;;;;;5033788;28;20177;-77
2023/06/16 07:18:08;;;;;;;13.17;7.80;;;22.50;1.00;;;;;;5033819;28;20197;-77
2023/06/16 07:20:33;;;;;;;12.33;7.33;;;22.70;1.00;;;;;;5032327;28;20222;-75
2023/06/16 07:23:00;;;;;;;10.50;7.10;;;22.90;99.90;;;;;;5032379;28;20198;-75
2023/06/16 07:25:28;;;;;;;14.17;6.77;;;23.10;99.90;;;;;;5033697;28;20230;-76
2023/06/16 07:27:54;;;;;;;8.10;6.77;;;23.20;99.90;;;;;;5033862;28;20178;-76
2023/06/16 07:30:20;;;;;;;12.47;7.20;;;23.30;1.00;;;;;;5033689;28;20257;-77
2023/06/16 07:32:46;;;;;;;12.17;7.23;;;23.40;99.90;;;;;;5034062;28;20275;-77
2023/06/16 07:35:12;;;;;;;16.20;7.33;;;23.50;1.00;;;;;;5033206;28;20176;-75
2023/06/16 07:37:38;;;;;;;12.33;7.13;;;23.70;1.00;;;;;;5034859;28;20257;-76
2023/06/16 07:40:07;;;;;;;12.00;7.03;;;23.70;17.70;;;;;;5041589;28;20631;-77
2023/06/16 07:42:34;;;;;;;12.50;6.90;;;23.90;99.90;;;;;;5031679;28;20633;-76
2023/06/16 07:44:59;;;;;;;12.40;7.13;;;23.70;99.90;;;;;;5035918;28;20177;-76
2023/06/16 07:47:25;;;;;;;13.97;7.93;;;23.80;93.00;;;;;;5033375;28;20179;-76
2023/06/16 07:49:51;;;;;;;15.73;7.83;;;23.80;99.90;;;;;;5033397;28;20212;-77
2023/06/16 07:52:17;;;;;;;13.70;7.53;;;23.90;1.00;;;;;;5033710;28;20180;-77
2023/06/16 07:54:43;;;;;;;15.53;7.50;;;24.10;1.00;;;;;;5033094;28;20235;-76
2023/06/16 07:57:09;;;;;;;12.43;6.77;;;24.20;1.00;;;;;;5032982;28;20177;-78
2023/06/16 07:59:35;;;;;;;15.83;7.40;;;23.80;99.90;;;;;;5032708;28;20223;-76
2023/06/16 08:02:04;;;;;;;13.33;7.13;;;23.90;1.00;;;;;;5014935;28;20262;-77
2023/06/16 08:04:29;;;;;;;12.63;8.03;;;24.00;99.90;;;;;;5032425;28;20242;-76
2023/06/16 08:06:58;;;;;;;15.07;7.03;;;24.10;99.90;;;;;;5032459;28;20652;-75
2023/06/16 08:09:24;;;;;;;13.57;7.57;;;24.50;1.00;;;;;;5032393;28;20545;-76
2023/06/16 08:11:50;;;;;;;11.20;7.00;;;24.60;1.00;;;;;;5032988;28;20184;-76
2023/06/16 08:14:16;;;;;;;11.63;7.10;;;24.40;1.00;;;;;;5032625;28;20181;-77
2023/06/16 08:16:42;;;;;;;14.63;7.07;;;24.30;1.00;;;;;;5032959;28;20184;-77
2023/06/16 08:19:08;;;;;;;11.60;6.87;;;24.30;51.70;;;;;;5035583;28;20176;-77
2023/06/16 08:21:34;;;;;;;12.30;7.37;;;24.50;1.00;;;;;;5036182;28;20223;-77
2023/06/16 08:24:01;;;;;;;14.67;7.00;;;24.60;99.90;;;;;;5036304;28;20177;-76
2023/06/16 08:26:27;;;;;;;10.17;6.00;;;24.80;99.90;;;;;;5036007;28;20165;-76
2023/06/16 08:28:53;;;;;;;15.03;6.67;;;25.00;1.00;;;;;;5035581;28;20223;-77
2023/06/16 08:31:19;;;;;;;17.30;7.50;;;25.20;99.90;;;;;;5035248;28;20181;-81
2023/06/16 08:33:45;;;;;;;13.73;6.63;;;24.80;1.00;;;;;;5036098;28;20253;-81
2023/06/16 08:36:11;;;;;;;11.57;6.90;;;24.40;99.90;;;;;;5035237;28;20197;-81
2023/06/16 08:38:37;;;;;;;12.93;6.83;;;24.40;1.00;;;;;;5036553;28;20185;-81
2023/06/16 08:41:08;;;;;;;18.80;7.70;;;24.50;1.00;;;;;;5042411;28;20480;-82
2023/06/16 08:43:38;;;;;;;14.47;6.57;;;24.40;99.90;;;;;;5056141;28;20168;-81
2023/06/16 08:46:05;;;;;;;13.97;6.77;;;24.30;99.90;;;;;;5022032;28;20615;-82
2023/06/16 08:48:34;;;;;;;18.77;7.00;;;24.40;1.00;;;;;;5041334;28;20246;-79
2023/06/16 08:51:09;;;;;;;15.60;6.87;;;24.60;99.90;;;;;;5036150;28;20232;-81
2023/06/16 08:53:38;;;;;;;13.00;6.23;;;24.60;99.90;;;;;;5036219;28;20161;-82
2023/06/16 08:56:05;;;;;;;10.53;6.70;;;24.50;1.00;;;;;;5036508;28;20157;-80
2023/06/16 08:58:33;;;;;;;12.83;7.00;;;24.60;71.80;;;;;;5036336;28;20231;-81
2023/06/16 09:01:00;;;;;;;9.67;6.37;;;24.60;1.00;;;;;;5037724;28;20513;-81
2023/06/16 09:03:32;;;;;;;10.63;5.97;;;24.50;1.00;;;;;;5041094;28;20626;-81
2023/06/16 09:06:00;;;;;;;10.47;6.20;;;24.50;1.00;;;;;;5055375;28;20205;-81
2023/06/16 09:08:26;;;;;;;11.40;5.90;;;24.60;99.90;;;;;;5052205;28;20181;-79
2023/06/16 09:10:55;;;;;;;12.90;5.90;;;24.70;1.00;;;;;;5045310;28;20221;-80
2023/06/16 09:13:24;;;;;;;11.03;5.97;;;24.90;99.90;;;;;;5028222;28;20181;-79
2023/06/16 09:15:56;;;;;;;9.97;5.57;;;25.00;99.90;;;;;;5043477;28;20637;-81
2023/06/16 09:18:36;;;;;;;9.67;6.23;;;25.00;53.90;;;;;;5032181;28;20195;-80
2023/06/16 09:21:05;;;;;;;12.00;6.33;;;25.00;56.80;;;;;;5034384;28;20265;-81
2023/06/16 09:23:31;;;;;;;16.63;6.50;;;25.00;1.00;;;;;;5035968;28;20177;-80
2023/06/16 09:25:57;;;;;;;16.90;6.57;;;25.00;1.00;;;;;;5035514;28;20505;-80
2023/06/16 09:28:37;;;;;;;12.20;6.70;;;25.20;1.00;;;;;;5034559;28;20182;-79
2023/06/16 09:31:05;;;;;;;10.13;4.63;;;25.30;1.00;;;;;;5035789;28;20201;-81
2023/06/16 09:33:31;;;;;;;11.53;5.30;;;25.20;99.90;;;;;;5036335;28;20181;-82
2023/06/16 09:35:58;;;;;;;8.30;5.67;;;25.30;1.00;;;;;;5036321;28;20193;-83
2023/06/16 09:38:25;;;;;;;9.77;5.90;;;25.40;99.90;;;;;;5035782;28;20178;-82
2023/06/16 09:40:50;;;;;;;11.30;5.83;;;25.30;99.90;;;;;;5036239;28;20656;-82
2023/06/16 09:43:17;;;;;;;8.17;5.63;;;25.40;99.90;;;;;;5036533;28;20214;-80
2023/06/16 09:45:44;;;;;;;10.67;5.83;;;25.40;99.90;;;;;;5019109;28;20174;-82
2023/06/16 09:48:11;;;;;;;8.70;5.43;;;25.40;1.00;;;;;;5035888;28;20197;-82
2023/06/16 09:50:40;;;;;;;8.40;4.60;;;25.30;1.00;;;;;;5035748;28;20201;-81
2023/06/16 09:53:07;;;;;;;9.10;4.90;;;25.30;99.90;;;;;;5017424;28;20177;-83
2023/06/16 09:55:40;;;;;;;18.83;5.27;;;25.40;99.90;;;;;;5035587;28;20695;-82
2023/06/16 09:58:07;;;;;;;9.13;4.87;;;25.40;99.90;;;;;;5036108;28;20173;-84
2023/06/16 10:00:33;;;;;;;9.90;5.40;;;25.30;99.90;;;;;;5034491;28;20634;-81
2023/06/16 10:03:00;;;;;;;6.30;5.23;;;25.20;99.90;;;;;;5035179;28;20169;-82
2023/06/16 10:05:30;;;;;;;7.33;5.03;;;25.20;99.90;;;;;;5036135;28;20155;-81
2023/06/16 10:07:57;;;;;;;9.30;5.30;;;25.50;99.90;;;;;;5035398;28;20190;-80
2023/06/16 10:10:29;;;;;;;7.03;5.03;;;25.50;99.90;;;;;;5034267;28;20213;-81
2023/06/16 10:12:56;;;;;;;7.80;4.00;;;25.60;99.90;;;;;;5035389;28;20173;-82
2023/06/16 10:15:31;;;;;;;8.50;5.33;;;25.70;2.00;;;;;;5035082;28;20546;-81
2023/06/16 10:18:03;;;;;;;9.47;4.07;;;25.70;1.00;;;;;;5034820;28;20184;-81
2023/06/16 10:20:32;;;;;;;6.90;4.70;;;26.00;1.00;;;;;;5017085;28;20181;-83
2023/06/16 10:23:00;;;;;;;6.97;4.13;;;26.20;1.00;;;;;;5017570;28;20178;-84
2023/06/16 10:25:26;;;;;;;8.97;4.60;;;26.10;1.00;;;;;;5035444;28;20701;-83
2023/06/16 10:27:52;;;;;;;7.77;3.63;;;26.00;1.00;;;;;;5036721;28;20201;-82
2023/06/16 10:30:19;;;;;;;8.43;4.43;;;25.90;1.00;;;;;;5034338;28;20259;-81
2023/06/16 10:32:49;;;;;;;9.73;4.40;;;25.80;1.00;;;;;;5032213;28;20173;-77
2023/06/16 10:35:17;;;;;;;10.17;4.30;;;26.00;1.00;;;;;;5052463;28;20181;-77
2023/06/16 10:37:47;;;;;;;7.83;4.73;;;26.10;1.00;;;;;;5054098;28;20266;-77
2023/06/16 10:40:14;;;;;;;6.07;4.50;;;25.90;1.00;;;;;;5051692;28;20259;-77
2023/06/16 10:42:41;;;;;;;10.97;4.30;;;26.00;1.00;;;;;;5053025;28;20165;-77
2023/06/16 10:45:39;;;;;;;8.07;4.20;;;26.00;1.00;;;;;;5035693;28;20276;-78
2023/06/16 10:48:11;;;;;;;8.43;4.70;;;26.30;1.00;;;;;;5047648;28;20181;-78
2023/06/16 10:50:44;;;;;;;10.60;4.27;;;26.60;1.00;;;;;;5046958;28;20220;-76
2023/06/16 10:53:23;;;;;;;8.15;4.05;;;27.00;1.00;;;;;;5050164;28;20223;-75
2023/06/16 10:56:05;;;;;;;8.43;4.20;;;27.20;1.00;;;;;;5048122;28;20214;-75
2023/06/16 10:58:32;;;;;;;9.50;3.93;;;26.90;1.00;;;;;;5049259;28;20728;-76
2023/06/16 11:01:02;;;;;;;8.73;4.47;;;26.60;1.00;;;;;;5049485;28;20177;-77
2023/06/16 11:03:42;;;;;;;6.53;3.90;;;26.50;1.00;;;;;;5050341;28;20585;-75
2023/06/16 11:06:08;;;;;;;6.97;4.30;;;26.60;1.00;;;;;;5029336;28;20540;-78
2023/06/16 11:08:56;;;;;;;5.37;4.10;;;26.60;1.00;;;;;;5049318;28;20633;-76
2023/06/16 11:11:31;;;;;;;8.30;4.20;;;26.70;1.00;;;;;;5049970;28;20608;-76
2023/06/16 11:13:56;;;;;;;6.30;4.37;;;26.80;1.00;;;;;;5031701;28;20184;-76
2023/06/16 11:16:22;;;;;;;7.78;4.45;;;26.50;1.00;;;;;;5048775;28;20260;-77
2023/06/16 11:18:50;;;;;;;9.23;4.10;;;26.60;1.00;;;;;;5029922;28;20187;-76
2023/06/16 11:21:16;;;;;;;7.80;4.43;;;26.80;1.00;;;;;;5049099;28;20644;-76
2023/06/16 11:23:43;;;;;;;5.70;3.80;;;26.70;1.00;;;;;;5048753;28;20257;-77
2023/06/16 11:26:17;;;;;;;7.78;4.47;;;26.70;1.00;;;;;;5032327;28;20539;-76
2023/06/16 11:28:43;;;;;;;6.68;4.63;;;26.90;99.90;;;;;;5049943;28;20175;-77
2023/06/16 11:31:10;;;;;;;9.38;4.68;;;27.10;99.90;;;;;;5050291;28;20299;-78
2023/06/16 11:33:37;;;;;;;8.25;4.03;;;27.20;99.90;;;;;;5060518;28;20161;-74
2023/06/16 11:36:15;;;;;;;6.78;4.13;;;27.60;99.90;;;;;;5060840;28;20196;-74
2023/06/16 11:38:45;;;;;;;8.27;3.95;;;27.60;99.90;;;;;;5046957;28;20196;-76
2023/06/16 11:41:25;;;;;;;5.22;3.85;;;27.50;99.90;;;;;;5049839;28;20214;-77
2023/06/16 11:43:51;;;;;;;13.60;4.38;;;27.70;99.90;;;;;;5049527;28;20187;-76
2023/06/16 11:46:26;;;;;;;7.32;4.03;;;27.90;99.90;;;;;;5050987;28;20165;-77
2023/06/16 11:48:53;;;;;;;6.25;3.88;;;27.90;99.90;;;;;;5049251;28;20499;-77
2023/06/16 11:51:20;;;;;;;6.32;3.67;;;27.60;99.90;;;;;;5050442;28;20865;-76
2023/06/16 11:53:46;;;;;;;6.30;3.75;;;27.30;99.90;;;;;;5052619;28;20196;-77
2023/06/16 11:56:14;;;;;;;7.47;3.93;;;27.20;99.90;;;;;;5053575;28;20183;-76
2023/06/16 11:58:43;;;;;;;6.13;3.70;;;27.20;99.90;;;;;;5053571;28;20643;-77
2023/06/16 12:01:13;;;;;;;5.68;3.83;;;27.30;99.90;;;;;;5035427;28;20638;-77
2023/06/16 12:03:39;;;;;;;5.35;4.00;;;27.60;99.90;;;;;;5064660;28;20165;-76
2023/06/16 12:06:07;;;;;;;5.63;3.30;;;27.50;99.90;;;;;;5061048;28;20630;-79
2023/06/16 12:08:45;;;;;;;5.15;3.13;;;27.30;99.90;;;;;;5054612;28;20180;-77
2023/06/16 12:11:16;;;;;;;5.33;3.73;;;27.00;99.90;;;;;;5053572;28;20710;-76
2023/06/16 12:13:42;;;;;;;6.23;3.70;;;27.00;99.90;;;;;;5053880;28;20169;-76
2023/06/16 12:16:10;;;;;;;6.17;3.60;;;27.00;99.90;;;;;;5053354;28;20185;-76
2023/06/16 12:18:36;;;;;;;7.97;3.97;;;27.20;99.90;;;;;;5050739;28;20187;-77
2023/06/16 12:21:21;;;;;;;6.27;3.97;;;27.20;99.90;;;;;;5034808;28;20596;-77
2023/06/16 12:23:56;;;;;;;8.20;4.05;;;27.20;99.90;;;;;;5036239;28;20173;-77
2023/06/16 12:26:32;;;;;;;7.22;3.63;;;27.30;99.90;;;;;;5065135;28;20678;-75
2023/06/16 12:29:00;;;;;;;9.13;4.10;;;27.50;99.90;;;;;;5061478;28;20248;-75
2023/06/16 12:31:28;;;;;;;7.57;4.30;;;27.60;99.90;;;;;;5056026;28;20189;-76
2023/06/16 12:33:55;;;;;;;6.30;4.00;;;27.50;99.90;;;;;;5052132;28;20227;-75
2023/06/16 12:36:21;;;;;;;5.57;3.67;;;27.50;99.90;;;;;;5052400;28;20197;-77
2023/06/16 12:38:47;;;;;;;5.15;3.13;;;27.60;99.90;;;;;;5051935;28;20553;-74
2023/06/16 12:41:14;;;;;;;5.65;3.63;;;27.70;99.90;;;;;;5052516;28;20172;-75
2023/06/16 12:43:51;;;;;;;4.72;3.50;;;27.60;99.90;;;;;;5052071;28;20180;-76
2023/06/16 12:46:18;;;;;;;6.65;3.65;;;27.50;99.90;;;;;;5051457;28;20184;-76
2023/06/16 12:48:45;;;;;;;5.43;3.92;;;27.40;99.90;;;;;;5048782;28;20760;-77
2023/06/16 12:51:11;;;;;;;6.38;4.28;;;27.30;99.90;;;;;;5052061;28;20557;-76
2023/06/16 12:53:45;;;;;;;5.78;4.07;;;27.30;99.90;;;;;;5033843;28;20160;-76
2023/06/16 12:56:11;;;;;;;6.60;3.38;;;27.60;99.90;;;;;;5051919;28;20177;-75
2023/06/16 12:58:40;;;;;;;6.28;4.30;;;27.90;99.90;;;;;;5051201;28;20629;-76